createdAt,value
2018-06-14T00:21:27.538Z,17.40
2018-06-14T00:23:56.776Z,17.40
2018-06-14T00:26:26.056Z,17.30
2018-06-14T00:28:56.300Z,17.30
2018-06-14T00:31:25.586Z,17.40
2018-06-14T00:33:54.882Z,17.40
2018-06-14T00:36:24.122Z,17.40
2018-06-14T00:38:53.350Z,17.40
2018-06-14T00:41:22.585Z,17.40
2018-06-14T00:43:52.052Z,17.40
2018-06-14T00:46:21.252Z,17.40
2018-06-14T00:48:51.185Z,17.50
2018-06-14T01:15:04.412Z,17.30
2018-06-14T01:17:33.638Z,17.30
2018-06-14T01:20:02.932Z,17.30
2018-06-14T01:22:33.478Z,17.30
2018-06-14T01:25:02.671Z,17.30
2018-06-14T01:27:31.937Z,17.30
2018-06-14T01:30:01.191Z,17.30
2018-06-14T01:32:30.472Z,17.40
2018-06-14T01:34:59.680Z,17.40
2018-06-14T01:37:40.346Z,17.30
2018-06-14T01:40:09.628Z,17.30
2018-06-14T01:42:40.880Z,17.40
2018-06-14T01:45:10.073Z,17.30
2018-06-14T01:47:39.384Z,17.40
2018-06-14T01:50:08.618Z,17.30
2018-06-14T01:52:37.915Z,17.30
2018-06-14T01:55:07.129Z,17.30
2018-06-14T01:57:36.441Z,17.30
2018-06-14T02:00:05.885Z,17.30
2018-06-14T02:02:35.215Z,17.30
2018-06-14T02:05:05.443Z,17.30
2018-06-14T02:07:34.721Z,17.30
2018-06-14T02:10:04.177Z,17.30
2018-06-14T02:12:33.704Z,17.30
2018-06-14T02:15:02.986Z,17.30
2018-06-14T02:17:32.198Z,17.30
2018-06-14T02:20:04.826Z,17.30
2018-06-14T02:22:34.553Z,17.30
2018-06-14T02:25:03.918Z,17.20
2018-06-14T02:27:33.336Z,17.20
2018-06-14T02:30:02.860Z,17.20
2018-06-14T02:32:32.221Z,17.20
2018-06-14T02:35:02.251Z,17.20
2018-06-14T02:37:35.661Z,17.20
2018-06-14T02:40:05.617Z,17.20
2018-06-14T02:45:14.049Z,17.30
2018-06-14T02:47:43.275Z,17.30
2018-06-14T02:50:12.481Z,17.20
2018-06-14T02:52:41.693Z,17.30
2018-06-14T02:55:11.958Z,17.30
2018-06-14T02:57:41.404Z,17.30
2018-06-14T03:00:12.454Z,17.30
2018-06-14T03:05:26.017Z,17.30
2018-06-14T03:07:55.234Z,17.30
2018-06-14T03:10:24.460Z,17.30
2018-06-14T03:12:53.715Z,17.30
2018-06-14T03:15:31.093Z,17.30
2018-06-14T03:18:00.581Z,17.30
2018-06-14T03:20:29.926Z,17.30
2018-06-14T03:22:59.212Z,17.30
2018-06-14T03:25:28.424Z,17.30
2018-06-14T03:27:57.784Z,17.30
2018-06-14T03:30:32.522Z,17.30
2018-06-14T03:33:01.738Z,17.30
2018-06-14T03:35:30.914Z,17.30
2018-06-14T03:38:00.217Z,17.30
2018-06-14T03:40:29.772Z,17.40
2018-06-14T03:42:59.216Z,17.30
2018-06-14T03:45:29.871Z,17.40
2018-06-14T03:47:59.152Z,17.40
2018-06-14T03:50:28.364Z,17.40
2018-06-14T03:52:57.669Z,17.40
2018-06-14T03:55:26.981Z,17.40
2018-06-14T03:57:56.236Z,17.40
2018-06-14T04:00:25.472Z,17.40
2018-06-14T04:02:54.742Z,17.40
2018-06-14T04:05:23.997Z,17.40
2018-06-14T04:07:53.235Z,17.40
2018-06-14T04:10:22.519Z,17.40
2018-06-14T04:12:51.693Z,17.30
2018-06-14T04:15:25.146Z,17.40
2018-06-14T04:18:00.739Z,17.40
2018-06-14T04:20:30.481Z,17.40
2018-06-14T04:23:00.208Z,17.40
2018-06-14T04:25:29.573Z,17.30
2018-06-14T04:27:58.831Z,17.30
2018-06-14T04:30:28.196Z,17.30
2018-06-14T04:32:57.493Z,17.30
2018-06-14T04:35:26.703Z,17.30
2018-06-14T04:38:00.411Z,17.40
2018-06-14T04:40:29.623Z,17.40
2018-06-14T04:42:58.878Z,17.40
2018-06-14T04:45:29.054Z,17.40
2018-06-14T04:47:58.315Z,17.40
2018-06-14T04:50:27.591Z,17.40
2018-06-14T04:52:56.889Z,17.50
2018-06-14T04:55:26.150Z,17.50
2018-06-14T04:57:55.653Z,17.50
2018-06-14T05:00:26.925Z,17.50
2018-06-14T05:02:56.327Z,17.50
2018-06-14T05:05:25.592Z,17.50
2018-06-14T05:07:54.867Z,17.60
2018-06-14T05:10:24.210Z,17.60
2018-06-14T05:12:57.413Z,17.60
2018-06-14T05:15:32.113Z,17.60
2018-06-14T05:18:01.409Z,17.60
2018-06-14T05:20:30.573Z,17.60
2018-06-14T05:23:00.884Z,17.60
2018-06-14T05:25:30.225Z,17.60
2018-06-14T05:27:59.632Z,17.70
2018-06-14T05:30:28.921Z,17.70
2018-06-14T05:32:58.313Z,17.70
2018-06-14T05:35:27.542Z,17.70
2018-06-14T05:37:56.969Z,17.70
2018-06-14T05:40:26.267Z,17.70
2018-06-14T05:42:55.607Z,17.80
2018-06-14T05:45:25.347Z,17.80
2018-06-14T05:47:54.805Z,17.80
2018-06-14T05:50:24.727Z,17.80
2018-06-14T05:52:54.922Z,17.80
2018-06-14T05:55:24.388Z,17.80
2018-06-14T05:57:53.993Z,17.80
2018-06-14T06:00:23.358Z,17.80
2018-06-14T06:02:52.828Z,17.80
2018-06-14T06:05:22.241Z,17.80
2018-06-14T06:07:51.494Z,17.80
2018-06-14T06:10:20.807Z,17.90
2018-06-14T06:12:53.123Z,17.90
2018-06-14T06:15:22.451Z,18.00
2018-06-14T06:17:51.768Z,18.00
2018-06-14T06:20:21.207Z,18.10
2018-06-14T06:22:50.597Z,18.10
2018-06-14T06:25:24.193Z,18.00
2018-06-14T06:27:53.989Z,18.00
2018-06-14T06:30:23.357Z,18.00
2018-06-14T06:32:52.820Z,18.00
2018-06-14T06:35:22.255Z,18.10
2018-06-14T06:37:51.677Z,18.10
2018-06-14T06:40:21.271Z,18.10
2018-06-14T06:42:50.633Z,18.10
2018-06-14T06:45:20.048Z,18.20
2018-06-14T06:47:49.754Z,18.30
2018-06-14T06:50:19.315Z,18.20
2018-06-14T06:52:49.253Z,18.20
2018-06-14T06:55:18.635Z,18.20
2018-06-14T06:57:48.822Z,18.10
2018-06-14T07:00:18.204Z,18.20
2018-06-14T07:02:47.896Z,18.10
2018-06-14T07:05:17.257Z,18.20
2018-06-14T07:07:46.683Z,18.20
2018-06-14T07:12:45.132Z,18.30
2018-06-14T07:15:14.693Z,18.40
2018-06-14T07:17:44.119Z,18.50
2018-06-14T07:20:13.463Z,18.60
2018-06-14T07:22:42.893Z,18.60
2018-06-14T07:25:12.279Z,18.70
2018-06-14T07:27:41.699Z,18.80
2018-06-14T07:30:11.159Z,18.90
2018-06-14T07:32:40.589Z,19.00
2018-06-14T07:35:09.962Z,19.10
2018-06-14T07:37:39.321Z,19.20
2018-06-14T07:40:08.819Z,19.20
2018-06-14T07:42:38.232Z,19.30
2018-06-14T07:45:07.718Z,19.40
2018-06-14T07:47:37.005Z,19.50
2018-06-14T07:52:36.373Z,19.60
2018-06-14T07:55:05.827Z,19.70
2018-06-14T07:57:35.428Z,19.80
2018-06-14T08:00:04.890Z,19.90
2018-06-14T08:02:34.494Z,20.00
2018-06-14T08:05:03.940Z,20.10
2018-06-14T08:07:33.523Z,20.20
2018-06-14T08:10:02.953Z,20.40
2018-06-14T08:12:32.395Z,20.60
2018-06-14T08:15:01.703Z,20.80
2018-06-14T08:17:31.139Z,21.00
2018-06-14T08:20:00.693Z,21.00
2018-06-14T08:22:30.316Z,21.10
2018-06-14T08:24:59.696Z,21.20
2018-06-14T08:29:58.443Z,21.30
2018-06-14T08:32:27.949Z,21.50
2018-06-14T08:34:57.494Z,21.70
2018-06-14T08:37:29.317Z,21.90
2018-06-14T08:39:59.131Z,22.00
2018-06-14T08:42:28.906Z,22.10
2018-06-14T08:44:58.293Z,22.10
2018-06-14T08:47:27.818Z,22.10
2018-06-14T08:49:57.209Z,22.20
2018-06-14T08:52:26.611Z,22.20
2018-06-14T08:54:56.096Z,22.30
2018-06-14T08:57:25.554Z,22.40
2018-06-14T08:59:54.984Z,22.50
2018-06-14T09:02:24.380Z,22.50
2018-06-14T09:04:53.795Z,22.60
2018-06-14T09:07:23.113Z,22.60
2018-06-14T09:09:52.573Z,22.50
2018-06-14T09:12:22.030Z,22.40
2018-06-14T09:14:51.290Z,22.30
2018-06-14T09:17:20.765Z,22.20
2018-06-14T09:19:50.159Z,22.20
2018-06-14T09:22:19.535Z,22.10
2018-06-14T09:24:49.138Z,22.10
2018-06-14T09:27:18.712Z,22.20
2018-06-14T09:29:48.239Z,22.30
2018-06-14T09:32:17.632Z,22.40
2018-06-14T09:34:47.042Z,22.60
2018-06-14T09:37:16.528Z,22.70
2018-06-14T09:39:46.021Z,22.80
2018-06-14T09:42:15.542Z,22.90
2018-06-14T09:44:45.011Z,23.10
2018-06-14T09:47:14.496Z,23.20
2018-06-14T09:49:43.779Z,23.20
2018-06-14T09:52:14.092Z,23.10
2018-06-14T09:54:43.490Z,23.30
2018-06-14T09:57:12.934Z,23.40
2018-06-14T09:59:42.314Z,23.50
2018-06-14T10:02:11.942Z,23.70
2018-06-14T10:04:41.440Z,23.80
2018-06-14T10:07:10.778Z,23.90
2018-06-14T10:09:40.421Z,24.00
2018-06-14T10:12:09.959Z,24.10
2018-06-14T10:14:39.289Z,24.00
2018-06-14T10:17:08.751Z,24.10
2018-06-14T10:19:38.020Z,24.30
2018-06-14T10:22:07.524Z,24.60
2018-06-14T10:24:36.785Z,24.80
2018-06-14T10:27:06.247Z,25.10
2018-06-14T10:29:35.561Z,25.20
2018-06-14T10:32:05.021Z,25.30
2018-06-14T10:34:34.367Z,25.40
2018-06-14T10:37:03.687Z,25.40
2018-06-14T10:39:33.067Z,25.40
2018-06-14T10:42:02.514Z,25.30
2018-06-14T10:44:31.893Z,25.00
2018-06-14T10:47:01.447Z,24.80
2018-06-14T10:49:30.792Z,24.80
2018-06-14T10:52:00.401Z,24.90
2018-06-14T10:54:29.804Z,25.10
2018-06-14T10:56:59.153Z,25.30
2018-06-14T10:59:28.478Z,25.40
2018-06-14T11:01:58.692Z,25.50
2018-06-14T11:04:28.459Z,25.60
2018-06-14T11:06:57.801Z,25.50
2018-06-14T11:09:27.246Z,25.30
2018-06-14T11:11:56.482Z,25.30
2018-06-14T11:14:25.909Z,25.10
2018-06-14T11:16:55.269Z,24.90
2018-06-14T11:19:24.602Z,24.80
2018-06-14T11:21:54.531Z,24.70
2018-06-14T11:24:23.887Z,24.80
2018-06-14T11:26:53.506Z,24.80
2018-06-14T11:29:22.944Z,25.10
2018-06-14T11:31:52.358Z,25.50
2018-06-14T11:34:21.706Z,26.10
2018-06-14T11:36:51.055Z,26.60
2018-06-14T11:39:20.407Z,27.00
2018-06-14T11:41:49.910Z,27.10
2018-06-14T11:44:19.381Z,27.00
2018-06-14T11:46:48.680Z,27.00
2018-06-14T11:49:18.093Z,27.30
2018-06-14T11:51:47.496Z,27.60
2018-06-14T11:54:16.971Z,27.70
2018-06-14T11:56:46.347Z,27.60
2018-06-14T11:59:16.065Z,28.00
2018-06-14T12:01:45.419Z,28.30
2018-06-14T12:04:15.001Z,28.90
2018-06-14T12:06:44.399Z,29.80
2018-06-14T12:09:13.735Z,31.00
2018-06-14T12:11:43.027Z,32.20
2018-06-14T12:14:12.439Z,33.20
2018-06-14T12:16:41.815Z,34.00
2018-06-14T12:19:11.260Z,34.70
2018-06-14T12:21:40.653Z,35.00
2018-06-14T12:24:10.061Z,35.50
2018-06-14T12:26:39.461Z,35.80
2018-06-14T12:29:08.827Z,35.60
2018-06-14T12:31:38.131Z,35.00
2018-06-14T12:34:08.159Z,34.60
2018-06-14T12:36:37.533Z,34.00
2018-06-14T12:39:08.966Z,33.20
2018-06-14T12:41:38.241Z,32.60
2018-06-14T12:44:07.835Z,31.90
2018-06-14T12:46:38.847Z,31.20
2018-06-14T12:49:08.597Z,30.80
2018-06-14T12:51:38.165Z,31.50
2018-06-14T12:54:08.056Z,32.50
2018-06-14T12:56:37.750Z,32.90
2018-06-14T12:59:07.746Z,32.60
2018-06-14T13:01:37.422Z,32.30
2018-06-14T13:04:07.761Z,31.70
2018-06-14T13:06:37.876Z,31.30
2018-06-14T13:09:10.314Z,31.20
2018-06-14T13:11:40.310Z,32.00
2018-06-14T13:14:10.534Z,33.00
2018-06-14T13:16:40.300Z,34.30
2018-06-14T13:19:16.644Z,35.00
2018-06-14T13:21:46.337Z,35.40
2018-06-14T13:24:16.068Z,35.60
2018-06-14T13:26:45.638Z,35.20
2018-06-14T13:29:15.633Z,34.80
2018-06-14T13:31:45.536Z,34.80
2018-06-14T13:34:15.121Z,35.40
2018-06-14T13:36:44.825Z,36.10
2018-06-14T13:39:14.565Z,36.80
2018-06-14T13:41:45.511Z,37.20
2018-06-14T13:44:15.288Z,37.60
2018-06-14T13:46:49.811Z,38.00
2018-06-14T13:49:20.478Z,38.60
2018-06-14T13:51:50.826Z,39.10
2018-06-14T13:54:22.064Z,39.40
2018-06-14T13:56:51.635Z,39.30
2018-06-14T13:59:22.298Z,39.10
2018-06-14T14:01:59.075Z,39.00
2018-06-14T14:04:28.730Z,39.10
2018-06-14T14:07:03.614Z,39.30
2018-06-14T14:09:35.269Z,39.30
2018-06-14T14:12:04.788Z,39.40
2018-06-14T14:14:35.337Z,39.60
2018-06-14T14:17:06.633Z,40.00
2018-06-14T14:19:35.842Z,39.70
2018-06-14T14:22:05.371Z,39.50
2018-06-14T14:24:37.389Z,39.50
2018-06-14T14:27:07.026Z,39.70
2018-06-14T14:29:38.670Z,40.00
2018-06-14T14:32:13.856Z,39.80
2018-06-14T14:34:43.370Z,38.90
2018-06-14T14:37:12.845Z,37.80
2018-06-14T14:39:50.463Z,36.80
2018-06-14T14:42:39.192Z,35.70
2018-06-14T14:45:24.503Z,34.70
2018-06-14T14:48:02.727Z,33.80
2018-06-14T14:50:46.352Z,33.00
2018-06-14T14:55:47.201Z,31.80
2018-06-14T14:58:16.532Z,31.40
2018-06-14T15:00:46.551Z,30.90
2018-06-14T15:03:16.121Z,30.60
2018-06-14T15:05:45.683Z,30.60
2018-06-14T15:08:15.195Z,30.40
2018-06-14T15:10:44.716Z,30.40
2018-06-14T15:13:15.233Z,30.90
2018-06-14T15:15:54.863Z,31.60
2018-06-14T15:18:24.722Z,32.60
2018-06-14T15:20:57.978Z,33.70
2018-06-14T15:23:27.650Z,34.60
2018-06-14T15:25:59.404Z,35.20
2018-06-14T15:28:28.988Z,35.60
2018-06-14T15:30:58.617Z,36.10
2018-06-14T15:33:28.165Z,36.50
2018-06-14T15:35:59.129Z,36.70
2018-06-14T15:38:28.953Z,36.90
2018-06-14T15:40:58.701Z,37.30
2018-06-14T15:43:28.183Z,37.60
2018-06-14T15:45:57.473Z,37.80
2018-06-14T15:48:26.883Z,38.00
2018-06-14T15:50:56.312Z,38.00
2018-06-14T15:53:26.127Z,38.00
2018-06-14T15:56:14.125Z,37.90
2018-06-14T15:58:44.171Z,37.70
2018-06-14T16:01:14.022Z,37.40
2018-06-14T16:03:43.809Z,37.10
2018-06-14T16:06:13.556Z,36.90
2018-06-14T16:08:43.605Z,36.80
2018-06-14T16:11:18.580Z,36.40
2018-06-14T16:13:54.744Z,36.00
2018-06-14T16:16:34.992Z,35.90
2018-06-14T16:19:10.989Z,36.00
2018-06-14T16:22:03.806Z,36.10
2018-06-14T16:24:34.721Z,36.40
2018-06-14T16:27:07.976Z,36.40
2018-06-14T16:29:38.676Z,36.20
2018-06-14T16:32:08.515Z,36.00
2018-06-14T16:34:42.715Z,35.60
2018-06-14T16:37:12.673Z,35.40
2018-06-14T16:39:42.709Z,35.30
2018-06-14T16:42:12.565Z,35.20
2018-06-14T16:44:42.333Z,35.30
2018-06-14T16:47:13.849Z,35.50
2018-06-14T16:49:43.317Z,35.60
2018-06-14T16:52:13.035Z,35.40
2018-06-14T16:54:42.872Z,35.30
2018-06-14T16:57:12.492Z,35.20
2018-06-14T16:59:42.154Z,35.10
2018-06-14T17:02:11.954Z,34.80
2018-06-14T17:04:41.493Z,34.50
2018-06-14T17:07:11.106Z,34.30
2018-06-14T17:09:41.683Z,34.10
2018-06-14T17:12:11.062Z,33.90
2018-06-14T17:14:40.501Z,33.70
2018-06-14T17:17:10.893Z,33.70
2018-06-14T17:19:40.314Z,33.60
2018-06-14T17:22:09.932Z,33.40
2018-06-14T17:24:39.389Z,33.10
2018-06-14T17:27:09.091Z,32.90
2018-06-14T17:29:38.631Z,32.70
2018-06-14T17:32:09.035Z,32.50
2018-06-14T17:34:38.605Z,32.40
2018-06-14T17:37:09.262Z,32.30
2018-06-14T17:39:38.881Z,32.20
2018-06-14T17:42:08.490Z,32.20
2018-06-14T17:44:38.224Z,32.10
2018-06-14T17:47:07.863Z,32.00
2018-06-14T17:49:37.583Z,32.00
2018-06-14T17:52:09.397Z,32.00
2018-06-14T17:54:38.986Z,31.80
2018-06-14T17:57:08.735Z,31.60
2018-06-14T17:59:39.155Z,31.30
2018-06-14T18:02:09.819Z,31.00
2018-06-14T18:04:41.305Z,30.60
2018-06-14T18:07:10.933Z,30.00
2018-06-14T18:09:47.671Z,29.40
2018-06-14T18:12:18.732Z,28.80
2018-06-14T18:14:48.513Z,28.50
2018-06-14T18:17:18.271Z,28.20
2018-06-14T18:19:48.164Z,28.00
2018-06-14T18:22:23.745Z,27.80
2018-06-14T18:24:54.910Z,27.60
2018-06-14T18:27:25.061Z,27.30
2018-06-14T18:29:55.213Z,27.10
2018-06-14T18:32:25.352Z,26.90
2018-06-14T18:34:54.906Z,26.70
2018-06-14T18:37:24.913Z,26.50
2018-06-14T18:39:54.459Z,26.30
2018-06-14T18:42:27.691Z,26.20
2018-06-14T18:44:57.416Z,26.00
2018-06-14T18:47:27.985Z,25.80
2018-06-14T18:50:03.507Z,25.50
2018-06-14T18:52:33.126Z,25.40
2018-06-14T18:55:02.680Z,25.20
2018-06-14T18:57:32.492Z,25.00
2018-06-14T19:00:02.384Z,24.90
2018-06-14T19:02:34.242Z,24.70
2018-06-14T19:05:04.160Z,24.50
2018-06-14T19:07:35.028Z,24.30
2018-06-14T19:10:05.409Z,24.10
2018-06-14T19:12:36.651Z,23.90
2018-06-14T19:15:08.628Z,23.80
2018-06-14T19:17:39.759Z,23.50
2018-06-14T19:20:09.788Z,23.30
2018-06-14T19:22:40.076Z,23.10
2018-06-14T19:25:11.801Z,23.00
2018-06-14T19:27:42.220Z,22.80
2018-06-14T19:30:12.229Z,22.70
2018-06-14T19:32:42.655Z,22.50
2018-06-14T19:35:13.273Z,22.40
2018-06-14T19:37:44.016Z,22.30
2018-06-14T19:40:14.356Z,22.20
2018-06-14T19:42:46.507Z,22.10
2018-06-14T19:45:16.242Z,21.90
2018-06-14T19:47:46.009Z,21.80
2018-06-14T19:50:16.059Z,21.70
2018-06-14T19:52:47.032Z,21.50
2018-06-14T19:55:17.496Z,21.40
2018-06-14T19:57:47.855Z,21.30
2018-06-14T20:00:19.947Z,21.10
2018-06-14T20:02:52.394Z,21.00
2018-06-14T20:05:22.619Z,20.90
2018-06-14T20:07:52.471Z,20.80
2018-06-14T20:10:24.205Z,20.60
2018-06-14T20:12:56.080Z,20.60
2018-06-14T20:15:25.762Z,20.50
2018-06-14T20:17:55.230Z,20.40
2018-06-14T20:20:24.920Z,20.20
2018-06-14T20:26:09.596Z,20.10
2018-06-14T20:28:46.783Z,20.00
2018-06-14T20:31:21.234Z,19.90
2018-06-14T20:33:51.218Z,19.80
2018-06-14T20:36:22.334Z,19.70
2018-06-14T20:38:52.173Z,19.60
2018-06-14T20:41:25.039Z,19.50
2018-06-14T20:43:55.923Z,19.40
2018-06-14T20:46:25.906Z,19.30
2018-06-14T20:49:00.687Z,19.20
2018-06-14T20:51:30.213Z,19.10
2018-06-14T20:53:59.955Z,19.10
2018-06-14T20:56:35.515Z,19.00
2018-06-14T20:59:15.595Z,18.90
2018-06-14T21:01:58.088Z,18.80
2018-06-14T21:04:31.468Z,18.80
2018-06-14T21:07:02.952Z,18.70
2018-06-14T21:09:33.037Z,18.60
2018-06-14T21:12:03.552Z,18.60
2018-06-14T21:14:34.432Z,18.50
2018-06-14T21:17:04.003Z,18.50
2018-06-14T21:19:33.803Z,18.40
2018-06-14T21:22:03.667Z,18.40
2018-06-14T21:24:33.648Z,18.30
2018-06-14T21:27:09.455Z,18.30
2018-06-14T21:29:45.022Z,18.20
2018-06-14T21:32:14.783Z,18.20
2018-06-14T21:34:44.305Z,18.10
2018-06-14T21:37:13.810Z,18.10
2018-06-14T21:39:44.321Z,18.00
2018-06-14T21:42:14.229Z,17.90
2018-06-14T21:44:45.127Z,17.90
2018-06-14T21:47:15.791Z,17.80
2018-06-14T21:49:46.274Z,17.80
2018-06-14T21:52:15.792Z,17.70
2018-06-14T21:54:45.277Z,17.70
2018-06-14T21:57:15.662Z,17.70
2018-06-14T21:59:45.119Z,17.60
2018-06-14T22:02:14.633Z,17.60
2018-06-14T22:04:44.060Z,17.50
2018-06-14T22:07:14.454Z,17.50
2018-06-14T22:09:46.149Z,17.40
2018-06-14T22:12:16.649Z,17.40
2018-06-14T22:14:46.460Z,17.40
2018-06-14T22:17:18.561Z,17.30
2018-06-14T22:19:48.106Z,17.30
2018-06-14T22:22:17.609Z,17.20
2018-06-14T22:24:46.988Z,17.20
2018-06-14T22:27:16.313Z,17.10
2018-06-14T22:29:45.728Z,17.10
2018-06-14T22:34:55.316Z,17.00
2018-06-14T22:37:25.039Z,17.00
2018-06-14T22:39:54.512Z,16.90
2018-06-14T22:44:55.881Z,16.80
2018-06-14T22:47:25.375Z,16.80
2018-06-14T22:49:54.782Z,16.70
2018-06-14T22:53:03.305Z,16.70
2018-06-14T22:55:32.659Z,16.60
2018-06-14T22:58:01.957Z,16.60
2018-06-14T23:01:41.299Z,16.50
2018-06-14T23:04:11.830Z,16.50
2018-06-14T23:06:41.310Z,16.40
2018-06-14T23:10:24.497Z,16.30
2018-06-14T23:15:37.727Z,16.20
2018-06-14T23:18:08.296Z,16.20
2018-06-14T23:20:37.937Z,16.10
2018-06-14T23:23:07.840Z,16.10
2018-06-14T23:25:37.710Z,16.10
2018-06-14T23:28:07.064Z,16.10
2018-06-14T23:30:36.407Z,16.10
2018-06-14T23:33:05.796Z,16.10
2018-06-14T23:35:35.072Z,16.00
2018-06-14T23:38:04.381Z,16.00
2018-06-14T23:40:33.817Z,16.00
2018-06-14T23:43:03.182Z,16.00
2018-06-14T23:45:33.472Z,16.00
2018-06-14T23:48:02.876Z,16.00
2018-06-14T23:50:40.390Z,15.90
2018-06-14T23:53:09.854Z,15.90
2018-06-14T23:55:39.362Z,15.90
2018-06-14T23:58:08.670Z,15.90
